sensor_id;sensor_type;location;lat;lon;timestamp;P1;durP1;ratioP1;P2;durP2;ratioP2
78312;SDS011;67568;47.438;21.408;2023-04-16T00:01:10;12.33;;;6.43;;
78312;SDS011;67568;47.438;21.408;2023-04-16T00:03:37;13.82;;;6.65;;
78312;SDS011;67568;47.438;21.408;2023-04-16T00:06:04;10.27;;;6.30;;
78312;SDS011;67568;47.438;21.408;2023-04-16T00:08:31;11.57;;;6.13;;
78312;SDS011;67568;47.438;21.408;2023-04-16T00:10:57;13.35;;;6.20;;
78312;SDS011;67568;47.438;21.408;2023-04-16T00:13:24;11.83;;;5.90;;
78312;SDS011;67568;47.438;21.408;2023-04-16T00:15:51;10.38;;;5.57;;
78312;SDS011;67568;47.438;21.408;2023-04-16T00:18:17;9.52;;;5.78;;
78312;SDS011;67568;47.438;21.408;2023-04-16T00:20:44;11.70;;;6.03;;
78312;SDS011;67568;47.438;21.408;2023-04-16T00:23:11;13.93;;;6.55;;
78312;SDS011;67568;47.438;21.408;2023-04-16T00:25:37;11.83;;;5.47;;
78312;SDS011;67568;47.438;21.408;2023-04-16T00:28:04;9.57;;;5.55;;
78312;SDS011;67568;47.438;21.408;2023-04-16T00:30:31;8.70;;;5.18;;
78312;SDS011;67568;47.438;21.408;2023-04-16T00:32:57;10.85;;;5.95;;
78312;SDS011;67568;47.438;21.408;2023-04-16T00:35:24;14.25;;;5.93;;
78312;SDS011;67568;47.438;21.408;2023-04-16T00:37:50;12.37;;;5.47;;
78312;SDS011;67568;47.438;21.408;2023-04-16T00:40:17;11.45;;;5.28;;
78312;SDS011;67568;47.438;21.408;2023-04-16T00:42:44;10.38;;;5.03;;
78312;SDS011;67568;47.438;21.408;2023-04-16T00:45:10;12.75;;;5.57;;
78312;SDS011;67568;47.438;21.408;2023-04-16T00:47:37;11.88;;;5.47;;
78312;SDS011;67568;47.438;21.408;2023-04-16T00:50:04;9.27;;;5.57;;
78312;SDS011;67568;47.438;21.408;2023-04-16T00:52:31;10.85;;;5.47;;
78312;SDS011;67568;47.438;21.408;2023-04-16T00:54:58;13.60;;;5.50;;
78312;SDS011;67568;47.438;21.408;2023-04-16T00:57:24;9.52;;;5.78;;
78312;SDS011;67568;47.438;21.408;2023-04-16T00:59:51;10.25;;;5.60;;
78312;SDS011;67568;47.438;21.408;2023-04-16T01:02:19;12.00;;;5.17;;
78312;SDS011;67568;47.438;21.408;2023-04-16T01:04:46;12.10;;;5.40;;
78312;SDS011;67568;47.438;21.408;2023-04-16T01:07:13;10.57;;;5.45;;
78312;SDS011;67568;47.438;21.408;2023-04-16T01:09:39;9.63;;;5.25;;
78312;SDS011;67568;47.438;21.408;2023-04-16T01:12:06;10.52;;;5.35;;
78312;SDS011;67568;47.438;21.408;2023-04-16T01:14:32;11.20;;;5.20;;
78312;SDS011;67568;47.438;21.408;2023-04-16T01:16:59;15.00;;;5.63;;
78312;SDS011;67568;47.438;21.408;2023-04-16T01:19:26;11.13;;;5.95;;
78312;SDS011;67568;47.438;21.408;2023-04-16T01:21:52;10.15;;;5.60;;
78312;SDS011;67568;47.438;21.408;2023-04-16T01:24:19;10.73;;;5.57;;
78312;SDS011;67568;47.438;21.408;2023-04-16T01:26:45;10.13;;;5.80;;
78312;SDS011;67568;47.438;21.408;2023-04-16T01:29:12;10.13;;;5.30;;
78312;SDS011;67568;47.438;21.408;2023-04-16T01:31:38;9.93;;;5.72;;
78312;SDS011;67568;47.438;21.408;2023-04-16T01:34:05;10.48;;;5.80;;
78312;SDS011;67568;47.438;21.408;2023-04-16T01:36:32;11.63;;;5.72;;
78312;SDS011;67568;47.438;21.408;2023-04-16T01:38:58;16.27;;;5.60;;
78312;SDS011;67568;47.438;21.408;2023-04-16T01:41:25;10.18;;;4.85;;
78312;SDS011;67568;47.438;21.408;2023-04-16T01:43:52;10.70;;;5.40;;
78312;SDS011;67568;47.438;21.408;2023-04-16T01:46:19;9.40;;;5.22;;
78312;SDS011;67568;47.438;21.408;2023-04-16T01:48:52;9.18;;;5.43;;
78312;SDS011;67568;47.438;21.408;2023-04-16T01:51:20;10.57;;;5.20;;
78312;SDS011;67568;47.438;21.408;2023-04-16T01:53:47;12.10;;;5.50;;
78312;SDS011;67568;47.438;21.408;2023-04-16T01:56:14;12.35;;;5.18;;
78312;SDS011;67568;47.438;21.408;2023-04-16T01:58:41;11.13;;;5.47;;
78312;SDS011;67568;47.438;21.408;2023-04-16T02:01:08;11.98;;;5.50;;
78312;SDS011;67568;47.438;21.408;2023-04-16T02:03:35;8.57;;;4.60;;
78312;SDS011;67568;47.438;21.408;2023-04-16T02:06:02;9.93;;;5.15;;
78312;SDS011;67568;47.438;21.408;2023-04-16T02:08:28;8.90;;;5.10;;
78312;SDS011;67568;47.438;21.408;2023-04-16T02:10:55;9.13;;;4.50;;
78312;SDS011;67568;47.438;21.408;2023-04-16T02:13:22;9.57;;;4.95;;
78312;SDS011;67568;47.438;21.408;2023-04-16T02:15:49;12.13;;;5.33;;
78312;SDS011;67568;47.438;21.408;2023-04-16T02:18:16;8.23;;;4.70;;
78312;SDS011;67568;47.438;21.408;2023-04-16T02:20:43;13.20;;;5.50;;
78312;SDS011;67568;47.438;21.408;2023-04-16T02:23:11;13.23;;;5.63;;
78312;SDS011;67568;47.438;21.408;2023-04-16T02:25:42;11.80;;;5.90;;
78312;SDS011;67568;47.438;21.408;2023-04-16T02:28:11;9.83;;;5.70;;
78312;SDS011;67568;47.438;21.408;2023-04-16T02:30:39;10.80;;;4.95;;
78312;SDS011;67568;47.438;21.408;2023-04-16T02:33:07;9.63;;;5.32;;
78312;SDS011;67568;47.438;21.408;2023-04-16T02:35:35;11.57;;;5.32;;
78312;SDS011;67568;47.438;21.408;2023-04-16T02:38:03;12.00;;;5.90;;
78312;SDS011;67568;47.438;21.408;2023-04-16T02:40:31;11.40;;;5.50;;
78312;SDS011;67568;47.438;21.408;2023-04-16T02:42:57;9.70;;;5.55;;
78312;SDS011;67568;47.438;21.408;2023-04-16T02:45:25;14.75;;;6.00;;
78312;SDS011;67568;47.438;21.408;2023-04-16T02:47:51;10.20;;;5.80;;
78312;SDS011;67568;47.438;21.408;2023-04-16T02:50:18;10.85;;;5.45;;
78312;SDS011;67568;47.438;21.408;2023-04-16T02:52:44;10.17;;;5.87;;
78312;SDS011;67568;47.438;21.408;2023-04-16T02:55:11;9.27;;;5.55;;
78312;SDS011;67568;47.438;21.408;2023-04-16T02:57:38;10.32;;;6.20;;
78312;SDS011;67568;47.438;21.408;2023-04-16T03:00:04;11.85;;;5.90;;
78312;SDS011;67568;47.438;21.408;2023-04-16T03:02:31;9.88;;;5.93;;
78312;SDS011;67568;47.438;21.408;2023-04-16T03:04:58;10.43;;;5.77;;
78312;SDS011;67568;47.438;21.408;2023-04-16T03:07:25;9.55;;;5.70;;
78312;SDS011;67568;47.438;21.408;2023-04-16T03:09:51;9.27;;;5.82;;
78312;SDS011;67568;47.438;21.408;2023-04-16T03:12:18;12.48;;;6.53;;
78312;SDS011;67568;47.438;21.408;2023-04-16T03:14:44;11.25;;;6.50;;
78312;SDS011;67568;47.438;21.408;2023-04-16T03:17:11;10.80;;;6.13;;
78312;SDS011;67568;47.438;21.408;2023-04-16T03:19:38;11.98;;;6.30;;
78312;SDS011;67568;47.438;21.408;2023-04-16T03:22:04;10.63;;;6.18;;
78312;SDS011;67568;47.438;21.408;2023-04-16T03:24:31;9.55;;;6.10;;
78312;SDS011;67568;47.438;21.408;2023-04-16T03:26:57;12.15;;;6.55;;
78312;SDS011;67568;47.438;21.408;2023-04-16T03:29:24;12.30;;;7.83;;
78312;SDS011;67568;47.438;21.408;2023-04-16T03:31:50;11.75;;;7.50;;
78312;SDS011;67568;47.438;21.408;2023-04-16T03:34:17;10.57;;;6.75;;
78312;SDS011;67568;47.438;21.408;2023-04-16T03:36:44;9.07;;;5.32;;
78312;SDS011;67568;47.438;21.408;2023-04-16T03:39:10;11.45;;;5.53;;
78312;SDS011;67568;47.438;21.408;2023-04-16T03:41:37;9.50;;;5.30;;
78312;SDS011;67568;47.438;21.408;2023-04-16T03:44:03;8.93;;;5.15;;
78312;SDS011;67568;47.438;21.408;2023-04-16T03:46:30;8.40;;;4.60;;
78312;SDS011;67568;47.438;21.408;2023-04-16T03:48:57;12.32;;;5.18;;
78312;SDS011;67568;47.438;21.408;2023-04-16T03:51:23;7.80;;;4.72;;
78312;SDS011;67568;47.438;21.408;2023-04-16T03:53:50;8.17;;;4.57;;
78312;SDS011;67568;47.438;21.408;2023-04-16T03:56:16;8.85;;;5.10;;
78312;SDS011;67568;47.438;21.408;2023-04-16T03:58:43;11.55;;;4.68;;
78312;SDS011;67568;47.438;21.408;2023-04-16T04:01:10;9.00;;;4.88;;
78312;SDS011;67568;47.438;21.408;2023-04-16T04:03:36;11.80;;;5.30;;
78312;SDS011;67568;47.438;21.408;2023-04-16T04:06:07;10.57;;;5.27;;
78312;SDS011;67568;47.438;21.408;2023-04-16T04:08:33;9.63;;;5.50;;
78312;SDS011;67568;47.438;21.408;2023-04-16T04:11:00;10.45;;;5.65;;
78312;SDS011;67568;47.438;21.408;2023-04-16T04:13:27;10.27;;;5.13;;
78312;SDS011;67568;47.438;21.408;2023-04-16T04:15:53;8.50;;;4.80;;
78312;SDS011;67568;47.438;21.408;2023-04-16T04:18:20;9.60;;;5.47;;
78312;SDS011;67568;47.438;21.408;2023-04-16T04:20:47;9.27;;;5.50;;
78312;SDS011;67568;47.438;21.408;2023-04-16T04:23:13;9.73;;;5.60;;
78312;SDS011;67568;47.438;21.408;2023-04-16T04:25:40;9.60;;;5.68;;
78312;SDS011;67568;47.438;21.408;2023-04-16T04:28:07;10.30;;;5.97;;
78312;SDS011;67568;47.438;21.408;2023-04-16T04:30:33;9.17;;;5.90;;
78312;SDS011;67568;47.438;21.408;2023-04-16T04:33:00;10.18;;;5.60;;
78312;SDS011;67568;47.438;21.408;2023-04-16T04:35:26;10.10;;;6.45;;
78312;SDS011;67568;47.438;21.408;2023-04-16T04:37:53;11.25;;;6.10;;
78312;SDS011;67568;47.438;21.408;2023-04-16T04:40:20;11.27;;;6.93;;
78312;SDS011;67568;47.438;21.408;2023-04-16T04:42:46;18.70;;;8.80;;
78312;SDS011;67568;47.438;21.408;2023-04-16T04:45:13;17.73;;;8.15;;
78312;SDS011;67568;47.438;21.408;2023-04-16T04:47:39;12.30;;;6.97;;
78312;SDS011;67568;47.438;21.408;2023-04-16T04:50:06;10.10;;;5.53;;
78312;SDS011;67568;47.438;21.408;2023-04-16T04:52:33;9.85;;;5.35;;
78312;SDS011;67568;47.438;21.408;2023-04-16T04:54:59;9.80;;;5.47;;
78312;SDS011;67568;47.438;21.408;2023-04-16T04:57:26;12.32;;;5.60;;
78312;SDS011;67568;47.438;21.408;2023-04-16T04:59:53;9.65;;;5.50;;
78312;SDS011;67568;47.438;21.408;2023-04-16T05:02:19;12.70;;;5.25;;
78312;SDS011;67568;47.438;21.408;2023-04-16T05:04:46;12.15;;;5.10;;
78312;SDS011;67568;47.438;21.408;2023-04-16T05:07:13;10.53;;;5.70;;
78312;SDS011;67568;47.438;21.408;2023-04-16T05:09:39;10.52;;;5.82;;
78312;SDS011;67568;47.438;21.408;2023-04-16T05:12:06;10.98;;;5.28;;
78312;SDS011;67568;47.438;21.408;2023-04-16T05:14:32;11.93;;;5.70;;
78312;SDS011;67568;47.438;21.408;2023-04-16T05:16:59;11.18;;;5.18;;
78312;SDS011;67568;47.438;21.408;2023-04-16T05:19:26;8.80;;;4.70;;
78312;SDS011;67568;47.438;21.408;2023-04-16T05:21:53;10.52;;;5.95;;
78312;SDS011;67568;47.438;21.408;2023-04-16T05:24:19;12.13;;;5.63;;
78312;SDS011;67568;47.438;21.408;2023-04-16T05:26:46;9.95;;;5.10;;
78312;SDS011;67568;47.438;21.408;2023-04-16T05:29:12;15.05;;;6.07;;
78312;SDS011;67568;47.438;21.408;2023-04-16T05:31:39;14.53;;;5.80;;
78312;SDS011;67568;47.438;21.408;2023-04-16T05:34:06;12.77;;;5.68;;
78312;SDS011;67568;47.438;21.408;2023-04-16T05:36:32;12.80;;;5.63;;
78312;SDS011;67568;47.438;21.408;2023-04-16T05:38:59;9.85;;;4.40;;
78312;SDS011;67568;47.438;21.408;2023-04-16T05:41:25;10.50;;;4.78;;
78312;SDS011;67568;47.438;21.408;2023-04-16T05:43:52;8.40;;;4.10;;
78312;SDS011;67568;47.438;21.408;2023-04-16T05:46:19;8.70;;;4.70;;
78312;SDS011;67568;47.438;21.408;2023-04-16T05:48:46;10.23;;;4.65;;
78312;SDS011;67568;47.438;21.408;2023-04-16T05:51:12;10.55;;;5.75;;
78312;SDS011;67568;47.438;21.408;2023-04-16T05:53:39;9.23;;;3.80;;
78312;SDS011;67568;47.438;21.408;2023-04-16T05:56:06;9.97;;;5.50;;
78312;SDS011;67568;47.438;21.408;2023-04-16T05:58:33;9.43;;;6.40;;
78312;SDS011;67568;47.438;21.408;2023-04-16T06:01:00;11.98;;;5.13;;
78312;SDS011;67568;47.438;21.408;2023-04-16T06:03:26;6.90;;;4.07;;
78312;SDS011;67568;47.438;21.408;2023-04-16T06:05:53;8.20;;;4.40;;
78312;SDS011;67568;47.438;21.408;2023-04-16T06:08:20;7.70;;;3.90;;
78312;SDS011;67568;47.438;21.408;2023-04-16T06:10:47;7.95;;;3.75;;
78312;SDS011;67568;47.438;21.408;2023-04-16T06:13:14;8.40;;;4.38;;
78312;SDS011;67568;47.438;21.408;2023-04-16T06:15:40;8.02;;;3.78;;
78312;SDS011;67568;47.438;21.408;2023-04-16T06:18:07;9.48;;;3.75;;
78312;SDS011;67568;47.438;21.408;2023-04-16T06:20:34;8.57;;;4.10;;
78312;SDS011;67568;47.438;21.408;2023-04-16T06:23:01;9.80;;;4.45;;
78312;SDS011;67568;47.438;21.408;2023-04-16T06:25:27;7.03;;;3.83;;
78312;SDS011;67568;47.438;21.408;2023-04-16T06:27:54;6.35;;;3.00;;
78312;SDS011;67568;47.438;21.408;2023-04-16T06:30:20;8.00;;;3.65;;
78312;SDS011;67568;47.438;21.408;2023-04-16T06:32:47;9.73;;;3.53;;
78312;SDS011;67568;47.438;21.408;2023-04-16T06:35:14;7.10;;;3.33;;
78312;SDS011;67568;47.438;21.408;2023-04-16T06:37:41;8.07;;;3.22;;
78312;SDS011;67568;47.438;21.408;2023-04-16T06:40:08;6.93;;;3.25;;
78312;SDS011;67568;47.438;21.408;2023-04-16T06:42:35;8.85;;;3.25;;
78312;SDS011;67568;47.438;21.408;2023-04-16T06:45:01;6.97;;;3.00;;
78312;SDS011;67568;47.438;21.408;2023-04-16T06:47:28;6.75;;;3.10;;
78312;SDS011;67568;47.438;21.408;2023-04-16T06:49:55;6.05;;;3.30;;
78312;SDS011;67568;47.438;21.408;2023-04-16T06:52:21;6.40;;;2.92;;
78312;SDS011;67568;47.438;21.408;2023-04-16T06:54:48;8.07;;;3.50;;
78312;SDS011;67568;47.438;21.408;2023-04-16T06:57:15;7.87;;;3.07;;
78312;SDS011;67568;47.438;21.408;2023-04-16T06:59:41;6.18;;;3.05;;
78312;SDS011;67568;47.438;21.408;2023-04-16T07:02:08;8.07;;;3.30;;
78312;SDS011;67568;47.438;21.408;2023-04-16T07:04:36;7.43;;;3.38;;
78312;SDS011;67568;47.438;21.408;2023-04-16T07:07:02;9.27;;;3.35;;
78312;SDS011;67568;47.438;21.408;2023-04-16T07:09:29;6.30;;;3.00;;
78312;SDS011;67568;47.438;21.408;2023-04-16T07:11:56;8.10;;;3.60;;
78312;SDS011;67568;47.438;21.408;2023-04-16T07:14:22;9.02;;;3.22;;
78312;SDS011;67568;47.438;21.408;2023-04-16T07:16:49;6.50;;;2.95;;
78312;SDS011;67568;47.438;21.408;2023-04-16T07:19:16;7.32;;;3.20;;
78312;SDS011;67568;47.438;21.408;2023-04-16T07:21:42;8.13;;;2.93;;
78312;SDS011;67568;47.438;21.408;2023-04-16T07:24:09;8.93;;;3.33;;
78312;SDS011;67568;47.438;21.408;2023-04-16T07:26:36;8.85;;;5.00;;
78312;SDS011;67568;47.438;21.408;2023-04-16T07:29:03;8.27;;;3.03;;
78312;SDS011;67568;47.438;21.408;2023-04-16T07:31:29;8.55;;;2.70;;
78312;SDS011;67568;47.438;21.408;2023-04-16T07:33:56;7.13;;;3.10;;
78312;SDS011;67568;47.438;21.408;2023-04-16T07:36:23;8.05;;;2.80;;
78312;SDS011;67568;47.438;21.408;2023-04-16T07:38:51;7.25;;;2.55;;
78312;SDS011;67568;47.438;21.408;2023-04-16T07:41:18;8.88;;;2.95;;
78312;SDS011;67568;47.438;21.408;2023-04-16T07:43:44;6.72;;;2.42;;
78312;SDS011;67568;47.438;21.408;2023-04-16T07:46:11;9.03;;;2.90;;
78312;SDS011;67568;47.438;21.408;2023-04-16T07:48:41;5.88;;;2.70;;
78312;SDS011;67568;47.438;21.408;2023-04-16T07:51:08;6.65;;;2.80;;
78312;SDS011;67568;47.438;21.408;2023-04-16T07:53:34;7.05;;;2.55;;
78312;SDS011;67568;47.438;21.408;2023-04-16T07:56:01;8.40;;;3.47;;
78312;SDS011;67568;47.438;21.408;2023-04-16T07:58:28;5.43;;;2.50;;
78312;SDS011;67568;47.438;21.408;2023-04-16T08:00:54;5.97;;;2.40;;
78312;SDS011;67568;47.438;21.408;2023-04-16T08:03:21;9.73;;;3.13;;
78312;SDS011;67568;47.438;21.408;2023-04-16T08:05:48;5.80;;;2.50;;
78312;SDS011;67568;47.438;21.408;2023-04-16T08:08:15;7.75;;;2.80;;
78312;SDS011;67568;47.438;21.408;2023-04-16T08:10:42;5.47;;;2.63;;
78312;SDS011;67568;47.438;21.408;2023-04-16T08:13:08;7.60;;;3.30;;
78312;SDS011;67568;47.438;21.408;2023-04-16T08:15:35;7.75;;;3.00;;
78312;SDS011;67568;47.438;21.408;2023-04-16T08:18:01;6.93;;;2.95;;
78312;SDS011;67568;47.438;21.408;2023-04-16T08:20:28;7.13;;;3.20;;
78312;SDS011;67568;47.438;21.408;2023-04-16T08:22:54;7.70;;;3.10;;
78312;SDS011;67568;47.438;21.408;2023-04-16T08:25:21;6.10;;;3.08;;
78312;SDS011;67568;47.438;21.408;2023-04-16T08:27:47;7.70;;;3.10;;
78312;SDS011;67568;47.438;21.408;2023-04-16T08:30:14;14.27;;;3.28;;
78312;SDS011;67568;47.438;21.408;2023-04-16T08:32:41;8.45;;;2.83;;
78312;SDS011;67568;47.438;21.408;2023-04-16T08:35:08;7.30;;;2.70;;
78312;SDS011;67568;47.438;21.408;2023-04-16T08:37:35;8.15;;;2.92;;
78312;SDS011;67568;47.438;21.408;2023-04-16T08:40:02;6.10;;;2.67;;
78312;SDS011;67568;47.438;21.408;2023-04-16T08:42:33;7.15;;;2.85;;
78312;SDS011;67568;47.438;21.408;2023-04-16T08:45:05;8.18;;;3.10;;
78312;SDS011;67568;47.438;21.408;2023-04-16T08:47:34;9.30;;;3.13;;
78312;SDS011;67568;47.438;21.408;2023-04-16T08:50:04;6.65;;;2.97;;
78312;SDS011;67568;47.438;21.408;2023-04-16T08:52:31;5.95;;;2.88;;
78312;SDS011;67568;47.438;21.408;2023-04-16T08:55:13;6.00;;;2.90;;
78312;SDS011;67568;47.438;21.408;2023-04-16T08:57:52;8.35;;;2.88;;
78312;SDS011;67568;47.438;21.408;2023-04-16T09:00:23;7.13;;;2.90;;
78312;SDS011;67568;47.438;21.408;2023-04-16T09:02:49;7.05;;;2.90;;
78312;SDS011;67568;47.438;21.408;2023-04-16T09:05:17;7.50;;;2.80;;
78312;SDS011;67568;47.438;21.408;2023-04-16T09:07:44;9.02;;;2.88;;
78312;SDS011;67568;47.438;21.408;2023-04-16T09:10:12;8.27;;;3.00;;
78312;SDS011;67568;47.438;21.408;2023-04-16T09:12:40;7.20;;;2.97;;
78312;SDS011;67568;47.438;21.408;2023-04-16T09:15:10;7.10;;;2.70;;
78312;SDS011;67568;47.438;21.408;2023-04-16T09:17:38;5.65;;;2.55;;
78312;SDS011;67568;47.438;21.408;2023-04-16T09:20:06;7.70;;;2.60;;
78312;SDS011;67568;47.438;21.408;2023-04-16T09:22:34;6.78;;;2.60;;
78312;SDS011;67568;47.438;21.408;2023-04-16T09:25:01;6.03;;;2.27;;
78312;SDS011;67568;47.438;21.408;2023-04-16T09:27:28;5.45;;;2.08;;
78312;SDS011;67568;47.438;21.408;2023-04-16T09:29:55;5.68;;;2.08;;
78312;SDS011;67568;47.438;21.408;2023-04-16T09:32:26;5.75;;;1.90;;
78312;SDS011;67568;47.438;21.408;2023-04-16T09:34:57;4.32;;;1.83;;
78312;SDS011;67568;47.438;21.408;2023-04-16T09:37:25;7.07;;;2.27;;
78312;SDS011;67568;47.438;21.408;2023-04-16T09:39:56;6.72;;;2.63;;
78312;SDS011;67568;47.438;21.408;2023-04-16T09:42:28;5.10;;;1.90;;
78312;SDS011;67568;47.438;21.408;2023-04-16T09:44:57;5.32;;;1.73;;
78312;SDS011;67568;47.438;21.408;2023-04-16T09:47:43;5.18;;;1.70;;
78312;SDS011;67568;47.438;21.408;2023-04-16T09:50:14;4.00;;;1.30;;
78312;SDS011;67568;47.438;21.408;2023-04-16T09:52:46;4.78;;;1.50;;
78312;SDS011;67568;47.438;21.408;2023-04-16T09:55:13;4.93;;;1.52;;
78312;SDS011;67568;47.438;21.408;2023-04-16T09:57:40;3.38;;;1.20;;
78312;SDS011;67568;47.438;21.408;2023-04-16T10:00:07;3.88;;;1.23;;
78312;SDS011;67568;47.438;21.408;2023-04-16T10:02:38;4.93;;;1.40;;
78312;SDS011;67568;47.438;21.408;2023-04-16T10:05:06;3.03;;;1.10;;
78312;SDS011;67568;47.438;21.408;2023-04-16T10:07:33;3.85;;;0.98;;
78312;SDS011;67568;47.438;21.408;2023-04-16T10:10:01;3.13;;;1.10;;
78312;SDS011;67568;47.438;21.408;2023-04-16T10:12:29;2.70;;;0.90;;
78312;SDS011;67568;47.438;21.408;2023-04-16T10:14:56;3.57;;;0.90;;
78312;SDS011;67568;47.438;21.408;2023-04-16T10:17:23;4.00;;;1.23;;
78312;SDS011;67568;47.438;21.408;2023-04-16T10:19:50;2.35;;;1.10;;
78312;SDS011;67568;47.438;21.408;2023-04-16T10:22:19;2.65;;;0.98;;
78312;SDS011;67568;47.438;21.408;2023-04-16T10:24:45;5.40;;;1.80;;
78312;SDS011;67568;47.438;21.408;2023-04-16T10:27:12;2.97;;;1.10;;
78312;SDS011;67568;47.438;21.408;2023-04-16T10:29:39;4.22;;;1.27;;
78312;SDS011;67568;47.438;21.408;2023-04-16T10:32:06;6.13;;;1.80;;
78312;SDS011;67568;47.438;21.408;2023-04-16T10:34:33;4.07;;;1.00;;
78312;SDS011;67568;47.438;21.408;2023-04-16T10:37:00;3.45;;;0.90;;
78312;SDS011;67568;47.438;21.408;2023-04-16T10:39:27;4.23;;;1.00;;
78312;SDS011;67568;47.438;21.408;2023-04-16T10:42:15;3.13;;;0.90;;
78312;SDS011;67568;47.438;21.408;2023-04-16T10:44:40;4.45;;;1.00;;
78312;SDS011;67568;47.438;21.408;2023-04-16T10:47:11;5.60;;;2.10;;
78312;SDS011;67568;47.438;21.408;2023-04-16T10:49:38;3.22;;;1.25;;
78312;SDS011;67568;47.438;21.408;2023-04-16T10:52:10;1.60;;;0.80;;
78312;SDS011;67568;47.438;21.408;2023-04-16T10:54:38;3.22;;;0.95;;
78312;SDS011;67568;47.438;21.408;2023-04-16T10:57:09;3.35;;;0.90;;
78312;SDS011;67568;47.438;21.408;2023-04-16T10:59:42;2.47;;;0.90;;
78312;SDS011;67568;47.438;21.408;2023-04-16T11:02:13;2.65;;;0.90;;
78312;SDS011;67568;47.438;21.408;2023-04-16T11:04:43;3.90;;;1.00;;
78312;SDS011;67568;47.438;21.408;2023-04-16T11:12:22;5.15;;;0.77;;
78312;SDS011;67568;47.438;21.408;2023-04-16T11:14:59;2.60;;;0.98;;
78312;SDS011;67568;47.438;21.408;2023-04-16T11:17:31;2.67;;;1.00;;
78312;SDS011;67568;47.438;21.408;2023-04-16T11:19:58;4.70;;;1.00;;
78312;SDS011;67568;47.438;21.408;2023-04-16T11:22:25;3.15;;;0.88;;
78312;SDS011;67568;47.438;21.408;2023-04-16T11:24:53;2.50;;;0.80;;
78312;SDS011;67568;47.438;21.408;2023-04-16T11:27:21;2.25;;;0.70;;
78312;SDS011;67568;47.438;21.408;2023-04-16T11:30:04;6.77;;;1.00;;
78312;SDS011;67568;47.438;21.408;2023-04-16T11:32:32;5.38;;;0.90;;
78312;SDS011;67568;47.438;21.408;2023-04-16T11:35:00;2.72;;;0.88;;
78312;SDS011;67568;47.438;21.408;2023-04-16T11:37:31;2.40;;;0.80;;
78312;SDS011;67568;47.438;21.408;2023-04-16T11:40:02;3.05;;;0.80;;
78312;SDS011;67568;47.438;21.408;2023-04-16T11:42:30;2.67;;;0.70;;
78312;SDS011;67568;47.438;21.408;2023-04-16T11:44:57;2.60;;;0.80;;
78312;SDS011;67568;47.438;21.408;2023-04-16T11:47:25;4.57;;;0.80;;
78312;SDS011;67568;47.438;21.408;2023-04-16T11:49:52;2.72;;;0.80;;
78312;SDS011;67568;47.438;21.408;2023-04-16T11:52:29;2.05;;;0.70;;
78312;SDS011;67568;47.438;21.408;2023-04-16T11:54:57;2.97;;;0.70;;
78312;SDS011;67568;47.438;21.408;2023-04-16T11:57:28;5.47;;;1.75;;
78312;SDS011;67568;47.438;21.408;2023-04-16T11:59:56;3.63;;;1.08;;
78312;SDS011;67568;47.438;21.408;2023-04-16T12:02:41;3.58;;;1.00;;
78312;SDS011;67568;47.438;21.408;2023-04-16T12:08:06;4.37;;;1.20;;
78312;SDS011;67568;47.438;21.408;2023-04-16T12:10:35;2.22;;;0.90;;
78312;SDS011;67568;47.438;21.408;2023-04-16T12:13:09;3.30;;;0.80;;
78312;SDS011;67568;47.438;21.408;2023-04-16T12:15:43;4.85;;;0.77;;
78312;SDS011;67568;47.438;21.408;2023-04-16T12:18:18;5.05;;;1.20;;
78312;SDS011;67568;47.438;21.408;2023-04-16T12:20:47;1.90;;;0.50;;
78312;SDS011;67568;47.438;21.408;2023-04-16T12:23:24;2.35;;;0.90;;
78312;SDS011;67568;47.438;21.408;2023-04-16T12:25:55;1.83;;;0.70;;
78312;SDS011;67568;47.438;21.408;2023-04-16T12:28:28;3.55;;;1.00;;
78312;SDS011;67568;47.438;21.408;2023-04-16T12:30:59;6.72;;;1.50;;
78312;SDS011;67568;47.438;21.408;2023-04-16T12:33:27;3.97;;;1.00;;
78312;SDS011;67568;47.438;21.408;2023-04-16T12:35:54;1.63;;;0.60;;
78312;SDS011;67568;47.438;21.408;2023-04-16T12:38:20;3.53;;;0.75;;
78312;SDS011;67568;47.438;21.408;2023-04-16T12:40:50;2.03;;;0.60;;
78312;SDS011;67568;47.438;21.408;2023-04-16T12:43:17;2.63;;;0.60;;
78312;SDS011;67568;47.438;21.408;2023-04-16T12:45:43;2.70;;;0.80;;
78312;SDS011;67568;47.438;21.408;2023-04-16T12:48:10;1.80;;;0.60;;
78312;SDS011;67568;47.438;21.408;2023-04-16T12:50:36;3.67;;;0.95;;
78312;SDS011;67568;47.438;21.408;2023-04-16T12:53:03;2.80;;;0.75;;
78312;SDS011;67568;47.438;21.408;2023-04-16T12:55:30;2.92;;;0.70;;
78312;SDS011;67568;47.438;21.408;2023-04-16T12:57:56;2.73;;;0.90;;
78312;SDS011;67568;47.438;21.408;2023-04-16T13:00:23;2.65;;;0.75;;
78312;SDS011;67568;47.438;21.408;2023-04-16T13:02:50;2.03;;;0.60;;
78312;SDS011;67568;47.438;21.408;2023-04-16T13:05:16;3.35;;;0.90;;
78312;SDS011;67568;47.438;21.408;2023-04-16T13:07:43;3.00;;;0.90;;
78312;SDS011;67568;47.438;21.408;2023-04-16T13:10:10;1.67;;;0.70;;
78312;SDS011;67568;47.438;21.408;2023-04-16T13:12:37;3.08;;;0.90;;
78312;SDS011;67568;47.438;21.408;2023-04-16T13:15:04;3.33;;;0.80;;
78312;SDS011;67568;47.438;21.408;2023-04-16T13:17:30;1.70;;;0.77;;
78312;SDS011;67568;47.438;21.408;2023-04-16T13:19:57;1.70;;;0.63;;
78312;SDS011;67568;47.438;21.408;2023-04-16T13:22:24;2.10;;;0.70;;
78312;SDS011;67568;47.438;21.408;2023-04-16T13:24:50;1.40;;;0.60;;
78312;SDS011;67568;47.438;21.408;2023-04-16T13:27:17;2.13;;;0.77;;
78312;SDS011;67568;47.438;21.408;2023-04-16T13:29:44;2.85;;;0.80;;
78312;SDS011;67568;47.438;21.408;2023-04-16T13:32:11;3.10;;;0.90;;
78312;SDS011;67568;47.438;21.408;2023-04-16T13:34:38;3.33;;;0.90;;
78312;SDS011;67568;47.438;21.408;2023-04-16T13:37:04;2.95;;;0.90;;
78312;SDS011;67568;47.438;21.408;2023-04-16T13:39:32;3.05;;;0.90;;
78312;SDS011;67568;47.438;21.408;2023-04-16T13:41:58;3.03;;;1.10;;
78312;SDS011;67568;47.438;21.408;2023-04-16T13:44:25;2.28;;;0.98;;
78312;SDS011;67568;47.438;21.408;2023-04-16T13:46:52;3.37;;;1.10;;
78312;SDS011;67568;47.438;21.408;2023-04-16T13:49:19;3.53;;;1.15;;
78312;SDS011;67568;47.438;21.408;2023-04-16T13:51:45;2.50;;;0.82;;
78312;SDS011;67568;47.438;21.408;2023-04-16T13:54:12;5.18;;;1.52;;
78312;SDS011;67568;47.438;21.408;2023-04-16T13:56:38;3.63;;;0.90;;
78312;SDS011;67568;47.438;21.408;2023-04-16T13:59:05;3.97;;;1.20;;
78312;SDS011;67568;47.438;21.408;2023-04-16T14:01:33;5.03;;;0.90;;
78312;SDS011;67568;47.438;21.408;2023-04-16T14:03:59;2.30;;;0.82;;
78312;SDS011;67568;47.438;21.408;2023-04-16T14:06:27;2.72;;;1.10;;
78312;SDS011;67568;47.438;21.408;2023-04-16T14:08:53;4.97;;;1.20;;
78312;SDS011;67568;47.438;21.408;2023-04-16T14:11:20;5.27;;;1.20;;
78312;SDS011;67568;47.438;21.408;2023-04-16T14:13:47;5.05;;;1.25;;
78312;SDS011;67568;47.438;21.408;2023-04-16T14:16:13;4.47;;;1.25;;
78312;SDS011;67568;47.438;21.408;2023-04-16T14:18:40;3.15;;;1.13;;
78312;SDS011;67568;47.438;21.408;2023-04-16T14:21:07;2.53;;;1.10;;
78312;SDS011;67568;47.438;21.408;2023-04-16T14:23:34;2.70;;;1.10;;
78312;SDS011;67568;47.438;21.408;2023-04-16T14:26:00;4.30;;;1.30;;
78312;SDS011;67568;47.438;21.408;2023-04-16T14:28:27;3.47;;;1.10;;
78312;SDS011;67568;47.438;21.408;2023-04-16T14:30:53;2.90;;;1.10;;
78312;SDS011;67568;47.438;21.408;2023-04-16T14:33:20;2.40;;;1.00;;
78312;SDS011;67568;47.438;21.408;2023-04-16T14:35:46;5.50;;;1.30;;
78312;SDS011;67568;47.438;21.408;2023-04-16T14:38:13;6.38;;;1.50;;
78312;SDS011;67568;47.438;21.408;2023-04-16T14:40:40;8.20;;;1.52;;